sensor_id;sensor_type;location;lat;lon;timestamp;temperature;humidity
14411;DHT22;7290;50.854;4.354;2022-12-18T00:00:12;1.10;99.90
14411;DHT22;7290;50.854;4.354;2022-12-18T00:02:38;1.20;99.90
14411;DHT22;7290;50.854;4.354;2022-12-18T00:05:05;1.20;99.90
14411;DHT22;7290;50.854;4.354;2022-12-18T00:07:31;1.20;99.90
14411;DHT22;7290;50.854;4.354;2022-12-18T00:09:57;1.20;99.90
14411;DHT22;7290;50.854;4.354;2022-12-18T00:12:24;1.10;99.90
14411;DHT22;7290;50.854;4.354;2022-12-18T00:14:50;1.00;99.90
14411;DHT22;7290;50.854;4.354;2022-12-18T00:17:16;1.00;99.90
14411;DHT22;7290;50.854;4.354;2022-12-18T00:19:42;0.90;99.90
14411;DHT22;7290;50.854;4.354;2022-12-18T00:22:08;0.90;99.90
14411;DHT22;7290;50.854;4.354;2022-12-18T00:24:34;1.00;99.90
14411;DHT22;7290;50.854;4.354;2022-12-18T00:27:00;1.00;99.90
14411;DHT22;7290;50.854;4.354;2022-12-18T00:29:27;1.00;99.90
14411;DHT22;7290;50.854;4.354;2022-12-18T00:31:53;1.00;99.90
14411;DHT22;7290;50.854;4.354;2022-12-18T00:34:19;0.90;99.90
14411;DHT22;7290;50.854;4.354;2022-12-18T00:36:47;0.90;99.90
14411;DHT22;7290;50.854;4.354;2022-12-18T00:39:13;0.90;99.90
14411;DHT22;7290;50.854;4.354;2022-12-18T00:41:40;1.00;99.90
14411;DHT22;7290;50.854;4.354;2022-12-18T00:44:23;1.00;99.90
14411;DHT22;7290;50.854;4.354;2022-12-18T00:46:50;1.00;99.90
14411;DHT22;7290;50.854;4.354;2022-12-18T00:49:17;1.00;99.90
14411;DHT22;7290;50.854;4.354;2022-12-18T00:51:44;1.10;99.90
14411;DHT22;7290;50.854;4.354;2022-12-18T00:54:10;1.20;99.90
14411;DHT22;7290;50.854;4.354;2022-12-18T00:56:37;1.20;99.90
14411;DHT22;7290;50.854;4.354;2022-12-18T00:59:04;1.00;99.90
14411;DHT22;7290;50.854;4.354;2022-12-18T01:01:30;0.70;99.90
14411;DHT22;7290;50.854;4.354;2022-12-18T01:03:57;0.50;99.90
14411;DHT22;7290;50.854;4.354;2022-12-18T01:06:23;0.50;99.90
14411;DHT22;7290;50.854;4.354;2022-12-18T01:08:49;0.50;99.90
14411;DHT22;7290;50.854;4.354;2022-12-18T01:11:17;0.50;99.90
14411;DHT22;7290;50.854;4.354;2022-12-18T01:13:43;0.50;99.90
14411;DHT22;7290;50.854;4.354;2022-12-18T01:16:11;0.60;99.90
14411;DHT22;7290;50.854;4.354;2022-12-18T01:18:38;0.70;99.90
14411;DHT22;7290;50.854;4.354;2022-12-18T01:21:07;0.60;99.90
14411;DHT22;7290;50.854;4.354;2022-12-18T01:23:33;0.60;99.90
14411;DHT22;7290;50.854;4.354;2022-12-18T01:26:04;0.70;99.90
14411;DHT22;7290;50.854;4.354;2022-12-18T01:28:30;0.60;99.90
14411;DHT22;7290;50.854;4.354;2022-12-18T01:30:56;0.60;99.90
14411;DHT22;7290;50.854;4.354;2022-12-18T01:33:22;0.60;99.90
14411;DHT22;7290;50.854;4.354;2022-12-18T01:35:48;0.40;99.90
14411;DHT22;7290;50.854;4.354;2022-12-18T01:38:15;0.40;99.90
14411;DHT22;7290;50.854;4.354;2022-12-18T01:40:41;0.20;99.90
14411;DHT22;7290;50.854;4.354;2022-12-18T01:43:09;0.10;99.90
14411;DHT22;7290;50.854;4.354;2022-12-18T01:45:35;0.10;99.90
14411;DHT22;7290;50.854;4.354;2022-12-18T01:48:03;0.10;99.90
14411;DHT22;7290;50.854;4.354;2022-12-18T01:50:34;0.10;99.90
14411;DHT22;7290;50.854;4.354;2022-12-18T01:53:06;0.20;99.90
14411;DHT22;7290;50.854;4.354;2022-12-18T01:55:38;0.30;99.90
14411;DHT22;7290;50.854;4.354;2022-12-18T01:58:05;0.20;99.90
14411;DHT22;7290;50.854;4.354;2022-12-18T02:00:31;0.20;99.90
14411;DHT22;7290;50.854;4.354;2022-12-18T02:02:58;0.10;99.90
14411;DHT22;7290;50.854;4.354;2022-12-18T02:05:31;0.20;99.90
14411;DHT22;7290;50.854;4.354;2022-12-18T02:08:04;0.30;99.90
14411;DHT22;7290;50.854;4.354;2022-12-18T02:10:39;0.30;99.90
14411;DHT22;7290;50.854;4.354;2022-12-18T02:13:12;0.30;99.90
14411;DHT22;7290;50.854;4.354;2022-12-18T02:15:46;0.20;99.90
14411;DHT22;7290;50.854;4.354;2022-12-18T02:18:18;0.10;99.90
14411;DHT22;7290;50.854;4.354;2022-12-18T02:20:48;0.10;99.90
14411;DHT22;7290;50.854;4.354;2022-12-18T02:23:33;0.10;99.90
14411;DHT22;7290;50.854;4.354;2022-12-18T02:26:12;0.10;99.90
14411;DHT22;7290;50.854;4.354;2022-12-18T02:28:43;0.00;99.90
14411;DHT22;7290;50.854;4.354;2022-12-18T02:31:13;-0.10;99.90
14411;DHT22;7290;50.854;4.354;2022-12-18T02:33:41;-0.10;99.90
14411;DHT22;7290;50.854;4.354;2022-12-18T02:36:08;-0.20;99.90
14411;DHT22;7290;50.854;4.354;2022-12-18T02:38:35;-0.10;99.90
14411;DHT22;7290;50.854;4.354;2022-12-18T02:41:02;-0.10;99.90
14411;DHT22;7290;50.854;4.354;2022-12-18T02:43:29;-0.10;99.90
14411;DHT22;7290;50.854;4.354;2022-12-18T02:45:57;0.00;99.90
14411;DHT22;7290;50.854;4.354;2022-12-18T02:48:26;0.00;99.90
14411;DHT22;7290;50.854;4.354;2022-12-18T02:50:59;-0.10;99.90
14411;DHT22;7290;50.854;4.354;2022-12-18T02:53:30;-0.10;99.90
14411;DHT22;7290;50.854;4.354;2022-12-18T02:56:05;-0.10;99.90
14411;DHT22;7290;50.854;4.354;2022-12-18T02:58:40;-0.10;99.90
14411;DHT22;7290;50.854;4.354;2022-12-18T03:01:13;-0.20;99.90
14411;DHT22;7290;50.854;4.354;2022-12-18T03:03:43;-0.10;99.90
14411;DHT22;7290;50.854;4.354;2022-12-18T03:06:17;0.00;99.90
14411;DHT22;7290;50.854;4.354;2022-12-18T03:08:50;0.00;99.90
14411;DHT22;7290;50.854;4.354;2022-12-18T03:11:18;-0.10;99.90
14411;DHT22;7290;50.854;4.354;2022-12-18T03:14:06;-0.20;99.90
14411;DHT22;7290;50.854;4.354;2022-12-18T03:16:34;-0.10;99.90
14411;DHT22;7290;50.854;4.354;2022-12-18T03:19:04;-0.20;99.90
14411;DHT22;7290;50.854;4.354;2022-12-18T03:21:35;-0.20;99.90
14411;DHT22;7290;50.854;4.354;2022-12-18T03:24:04;-0.20;99.90
14411;DHT22;7290;50.854;4.354;2022-12-18T03:26:32;-0.10;99.90
14411;DHT22;7290;50.854;4.354;2022-12-18T03:29:02;-0.20;99.90
14411;DHT22;7290;50.854;4.354;2022-12-18T03:31:31;-0.10;99.90
14411;DHT22;7290;50.854;4.354;2022-12-18T03:34:01;-0.30;99.90
14411;DHT22;7290;50.854;4.354;2022-12-18T03:36:28;-0.20;99.90
14411;DHT22;7290;50.854;4.354;2022-12-18T03:38:54;-0.20;99.90
14411;DHT22;7290;50.854;4.354;2022-12-18T03:41:29;-0.30;99.90
14411;DHT22;7290;50.854;4.354;2022-12-18T03:44:03;-0.30;99.90
14411;DHT22;7290;50.854;4.354;2022-12-18T03:46:39;-0.30;99.90
14411;DHT22;7290;50.854;4.354;2022-12-18T03:49:10;-0.30;99.90
14411;DHT22;7290;50.854;4.354;2022-12-18T03:51:40;-0.30;99.90
14411;DHT22;7290;50.854;4.354;2022-12-18T03:54:10;-0.40;99.90
14411;DHT22;7290;50.854;4.354;2022-12-18T03:56:39;-0.40;99.90
14411;DHT22;7290;50.854;4.354;2022-12-18T03:59:08;-0.40;99.90
14411;DHT22;7290;50.854;4.354;2022-12-18T04:01:40;-0.40;99.90
14411;DHT22;7290;50.854;4.354;2022-12-18T04:04:08;-0.30;99.90
14411;DHT22;7290;50.854;4.354;2022-12-18T04:06:35;-0.30;99.90
14411;DHT22;7290;50.854;4.354;2022-12-18T04:09:02;-0.30;99.90
14411;DHT22;7290;50.854;4.354;2022-12-18T04:11:28;-0.30;99.90
14411;DHT22;7290;50.854;4.354;2022-12-18T04:13:56;-0.30;99.90
14411;DHT22;7290;50.854;4.354;2022-12-18T04:16:22;-0.40;99.90
14411;DHT22;7290;50.854;4.354;2022-12-18T04:18:49;-0.50;99.90
14411;DHT22;7290;50.854;4.354;2022-12-18T04:21:15;-0.50;99.90
14411;DHT22;7290;50.854;4.354;2022-12-18T04:23:41;-0.50;99.90
14411;DHT22;7290;50.854;4.354;2022-12-18T04:26:07;-0.50;99.90
14411;DHT22;7290;50.854;4.354;2022-12-18T04:28:33;-0.50;99.90
14411;DHT22;7290;50.854;4.354;2022-12-18T04:30:59;-0.50;99.90
14411;DHT22;7290;50.854;4.354;2022-12-18T04:33:25;-0.60;99.90
14411;DHT22;7290;50.854;4.354;2022-12-18T04:35:52;-0.60;99.90
14411;DHT22;7290;50.854;4.354;2022-12-18T04:38:18;-0.60;99.90
14411;DHT22;7290;50.854;4.354;2022-12-18T04:40:44;-0.60;99.90
14411;DHT22;7290;50.854;4.354;2022-12-18T04:43:10;-0.60;99.90
14411;DHT22;7290;50.854;4.354;2022-12-18T04:45:36;-0.40;99.90
14411;DHT22;7290;50.854;4.354;2022-12-18T04:48:03;-0.40;99.90
14411;DHT22;7290;50.854;4.354;2022-12-18T04:50:30;-0.40;99.90
14411;DHT22;7290;50.854;4.354;2022-12-18T04:52:57;-0.40;99.90
14411;DHT22;7290;50.854;4.354;2022-12-18T04:55:23;-0.40;99.90
14411;DHT22;7290;50.854;4.354;2022-12-18T04:57:50;-0.40;99.90
14411;DHT22;7290;50.854;4.354;2022-12-18T05:00:16;-0.50;99.90
14411;DHT22;7290;50.854;4.354;2022-12-18T05:02:42;-0.60;99.90
14411;DHT22;7290;50.854;4.354;2022-12-18T05:05:08;-0.70;99.90
14411;DHT22;7290;50.854;4.354;2022-12-18T05:07:34;-0.60;99.90
14411;DHT22;7290;50.854;4.354;2022-12-18T05:10:01;-0.70;99.90
14411;DHT22;7290;50.854;4.354;2022-12-18T05:12:27;-0.80;99.90
14411;DHT22;7290;50.854;4.354;2022-12-18T05:14:53;-0.80;99.90
14411;DHT22;7290;50.854;4.354;2022-12-18T05:17:19;-0.80;99.90
14411;DHT22;7290;50.854;4.354;2022-12-18T05:19:45;-0.70;99.90
14411;DHT22;7290;50.854;4.354;2022-12-18T05:22:11;-0.80;99.90
14411;DHT22;7290;50.854;4.354;2022-12-18T05:24:37;-0.80;99.90
14411;DHT22;7290;50.854;4.354;2022-12-18T05:27:04;-0.70;99.90
14411;DHT22;7290;50.854;4.354;2022-12-18T05:29:30;-0.60;99.90
14411;DHT22;7290;50.854;4.354;2022-12-18T05:31:56;-0.50;99.90
14411;DHT22;7290;50.854;4.354;2022-12-18T05:34:22;-0.50;99.90
14411;DHT22;7290;50.854;4.354;2022-12-18T05:36:49;-0.50;99.90
14411;DHT22;7290;50.854;4.354;2022-12-18T05:39:15;-0.70;99.90
14411;DHT22;7290;50.854;4.354;2022-12-18T05:41:41;-0.60;99.90
14411;DHT22;7290;50.854;4.354;2022-12-18T05:44:07;-0.50;99.90
14411;DHT22;7290;50.854;4.354;2022-12-18T05:46:33;-0.50;99.90
14411;DHT22;7290;50.854;4.354;2022-12-18T05:49:00;-0.50;99.90
14411;DHT22;7290;50.854;4.354;2022-12-18T05:51:26;-0.60;99.90
14411;DHT22;7290;50.854;4.354;2022-12-18T05:53:52;-0.50;99.90
14411;DHT22;7290;50.854;4.354;2022-12-18T05:56:20;-0.60;99.90
14411;DHT22;7290;50.854;4.354;2022-12-18T05:58:47;-0.50;99.90
14411;DHT22;7290;50.854;4.354;2022-12-18T06:01:17;-0.50;99.90
14411;DHT22;7290;50.854;4.354;2022-12-18T06:03:43;-0.70;99.90
14411;DHT22;7290;50.854;4.354;2022-12-18T06:06:14;-0.60;99.90
14411;DHT22;7290;50.854;4.354;2022-12-18T06:08:40;-0.60;99.90
14411;DHT22;7290;50.854;4.354;2022-12-18T06:11:06;-0.60;99.90
14411;DHT22;7290;50.854;4.354;2022-12-18T06:13:32;-0.60;99.90
14411;DHT22;7290;50.854;4.354;2022-12-18T06:15:59;-0.60;99.90
14411;DHT22;7290;50.854;4.354;2022-12-18T06:18:27;-0.60;99.90
14411;DHT22;7290;50.854;4.354;2022-12-18T06:20:54;-0.60;99.90
14411;DHT22;7290;50.854;4.354;2022-12-18T06:23:21;-0.50;99.90
14411;DHT22;7290;50.854;4.354;2022-12-18T06:25:47;-0.50;99.90
14411;DHT22;7290;50.854;4.354;2022-12-18T06:28:13;-0.60;99.90
14411;DHT22;7290;50.854;4.354;2022-12-18T06:30:39;-0.60;99.90
14411;DHT22;7290;50.854;4.354;2022-12-18T06:33:05;-0.60;99.90
14411;DHT22;7290;50.854;4.354;2022-12-18T06:35:32;-0.50;99.90
14411;DHT22;7290;50.854;4.354;2022-12-18T06:38:05;-0.40;99.90
14411;DHT22;7290;50.854;4.354;2022-12-18T06:40:32;-0.50;99.90
14411;DHT22;7290;50.854;4.354;2022-12-18T06:42:58;-0.50;99.90
14411;DHT22;7290;50.854;4.354;2022-12-18T06:45:24;-0.60;99.90
14411;DHT22;7290;50.854;4.354;2022-12-18T06:47:50;-0.70;99.90
14411;DHT22;7290;50.854;4.354;2022-12-18T06:50:16;-0.60;99.90
14411;DHT22;7290;50.854;4.354;2022-12-18T06:52:43;-0.60;99.90
14411;DHT22;7290;50.854;4.354;2022-12-18T06:55:10;-0.60;99.90
14411;DHT22;7290;50.854;4.354;2022-12-18T06:57:36;-0.60;99.90
14411;DHT22;7290;50.854;4.354;2022-12-18T07:00:03;-0.60;99.90
14411;DHT22;7290;50.854;4.354;2022-12-18T07:02:30;-0.70;99.90
14411;DHT22;7290;50.854;4.354;2022-12-18T07:04:56;-0.70;99.90
14411;DHT22;7290;50.854;4.354;2022-12-18T07:07:22;-0.70;99.90
14411;DHT22;7290;50.854;4.354;2022-12-18T07:09:50;-0.60;99.90
14411;DHT22;7290;50.854;4.354;2022-12-18T07:12:16;-0.60;99.90
14411;DHT22;7290;50.854;4.354;2022-12-18T07:14:42;-0.60;99.90
14411;DHT22;7290;50.854;4.354;2022-12-18T07:17:08;-0.80;99.90
14411;DHT22;7290;50.854;4.354;2022-12-18T07:19:34;-1.00;99.90
14411;DHT22;7290;50.854;4.354;2022-12-18T07:22:00;-0.80;99.90
14411;DHT22;7290;50.854;4.354;2022-12-18T07:24:26;-0.60;99.90
14411;DHT22;7290;50.854;4.354;2022-12-18T07:26:53;-0.40;99.90
14411;DHT22;7290;50.854;4.354;2022-12-18T07:29:19;-0.50;99.90
14411;DHT22;7290;50.854;4.354;2022-12-18T07:31:45;-0.50;99.90
14411;DHT22;7290;50.854;4.354;2022-12-18T07:34:12;-0.70;99.90
14411;DHT22;7290;50.854;4.354;2022-12-18T07:36:38;-0.70;99.90
14411;DHT22;7290;50.854;4.354;2022-12-18T07:39:04;-0.60;99.90
14411;DHT22;7290;50.854;4.354;2022-12-18T07:41:31;-0.50;99.90
14411;DHT22;7290;50.854;4.354;2022-12-18T07:43:58;-0.40;99.90
14411;DHT22;7290;50.854;4.354;2022-12-18T07:46:24;-0.30;99.90
14411;DHT22;7290;50.854;4.354;2022-12-18T07:48:50;-0.30;99.90
14411;DHT22;7290;50.854;4.354;2022-12-18T07:51:17;-0.20;99.90
14411;DHT22;7290;50.854;4.354;2022-12-18T07:53:43;-0.50;99.90
14411;DHT22;7290;50.854;4.354;2022-12-18T07:56:11;-0.60;99.90
14411;DHT22;7290;50.854;4.354;2022-12-18T07:58:37;-0.50;99.90
14411;DHT22;7290;50.854;4.354;2022-12-18T08:01:06;-0.60;99.90
14411;DHT22;7290;50.854;4.354;2022-12-18T08:03:33;-0.60;99.90
14411;DHT22;7290;50.854;4.354;2022-12-18T08:06:00;-0.90;99.90
14411;DHT22;7290;50.854;4.354;2022-12-18T08:08:26;-0.70;99.90
14411;DHT22;7290;50.854;4.354;2022-12-18T08:10:52;-0.50;99.90
14411;DHT22;7290;50.854;4.354;2022-12-18T08:13:18;-0.20;99.90
14411;DHT22;7290;50.854;4.354;2022-12-18T08:15:44;0.00;99.90
14411;DHT22;7290;50.854;4.354;2022-12-18T08:18:11;0.20;99.90
14411;DHT22;7290;50.854;4.354;2022-12-18T08:20:37;0.40;99.90
14411;DHT22;7290;50.854;4.354;2022-12-18T08:23:03;0.40;99.90
14411;DHT22;7290;50.854;4.354;2022-12-18T08:25:29;0.50;99.90
14411;DHT22;7290;50.854;4.354;2022-12-18T08:27:55;0.60;99.90
14411;DHT22;7290;50.854;4.354;2022-12-18T08:30:22;0.60;99.90
14411;DHT22;7290;50.854;4.354;2022-12-18T08:32:51;0.50;99.90
14411;DHT22;7290;50.854;4.354;2022-12-18T08:35:18;0.40;99.90
14411;DHT22;7290;50.854;4.354;2022-12-18T08:37:44;0.60;99.90
14411;DHT22;7290;50.854;4.354;2022-12-18T08:40:11;0.80;99.90
14411;DHT22;7290;50.854;4.354;2022-12-18T08:42:38;0.70;99.90
14411;DHT22;7290;50.854;4.354;2022-12-18T08:45:22;0.70;99.90
14411;DHT22;7290;50.854;4.354;2022-12-18T08:47:49;0.70;99.90
14411;DHT22;7290;50.854;4.354;2022-12-18T08:50:15;0.50;99.90
14411;DHT22;7290;50.854;4.354;2022-12-18T08:52:41;0.50;99.90
14411;DHT22;7290;50.854;4.354;2022-12-18T08:55:09;0.70;99.90
14411;DHT22;7290;50.854;4.354;2022-12-18T08:57:35;0.70;99.90
14411;DHT22;7290;50.854;4.354;2022-12-18T09:00:01;0.70;99.90
14411;DHT22;7290;50.854;4.354;2022-12-18T09:02:27;0.90;99.90
14411;DHT22;7290;50.854;4.354;2022-12-18T09:04:53;1.00;99.90
14411;DHT22;7290;50.854;4.354;2022-12-18T09:07:19;1.10;99.90
14411;DHT22;7290;50.854;4.354;2022-12-18T09:09:46;1.20;99.90
14411;DHT22;7290;50.854;4.354;2022-12-18T09:12:12;0.90;99.90
14411;DHT22;7290;50.854;4.354;2022-12-18T09:14:38;0.80;99.90
14411;DHT22;7290;50.854;4.354;2022-12-18T09:17:04;0.60;99.90
14411;DHT22;7290;50.854;4.354;2022-12-18T09:19:30;0.20;99.90
14411;DHT22;7290;50.854;4.354;2022-12-18T09:21:56;0.20;99.90
14411;DHT22;7290;50.854;4.354;2022-12-18T09:24:22;0.10;99.90
14411;DHT22;7290;50.854;4.354;2022-12-18T09:26:52;0.10;99.90
14411;DHT22;7290;50.854;4.354;2022-12-18T09:29:19;0.20;99.90
14411;DHT22;7290;50.854;4.354;2022-12-18T09:31:45;0.10;99.90
14411;DHT22;7290;50.854;4.354;2022-12-18T09:34:11;0.00;99.90
14411;DHT22;7290;50.854;4.354;2022-12-18T09:36:37;0.10;99.90
14411;DHT22;7290;50.854;4.354;2022-12-18T09:39:04;0.00;99.90
14411;DHT22;7290;50.854;4.354;2022-12-18T09:41:42;0.20;99.90
14411;DHT22;7290;50.854;4.354;2022-12-18T09:44:29;0.30;99.90
14411;DHT22;7290;50.854;4.354;2022-12-18T09:47:09;0.40;99.90
14411;DHT22;7290;50.854;4.354;2022-12-18T09:49:39;0.40;99.90
14411;DHT22;7290;50.854;4.354;2022-12-18T09:52:11;0.30;99.90
14411;DHT22;7290;50.854;4.354;2022-12-18T09:54:39;0.30;99.90
14411;DHT22;7290;50.854;4.354;2022-12-18T09:57:14;0.50;99.90
14411;DHT22;7290;50.854;4.354;2022-12-18T09:59:42;0.60;99.90
14411;DHT22;7290;50.854;4.354;2022-12-18T10:02:16;1.00;99.90
14411;DHT22;7290;50.854;4.354;2022-12-18T10:04:43;1.30;99.90
14411;DHT22;7290;50.854;4.354;2022-12-18T10:07:14;1.50;99.90
14411;DHT22;7290;50.854;4.354;2022-12-18T10:09:46;1.70;99.90
14411;DHT22;7290;50.854;4.354;2022-12-18T10:12:22;1.60;99.90
14411;DHT22;7290;50.854;4.354;2022-12-18T10:14:55;1.60;99.90
14411;DHT22;7290;50.854;4.354;2022-12-18T10:17:26;1.30;99.90
14411;DHT22;7290;50.854;4.354;2022-12-18T10:19:56;1.10;99.90
14411;DHT22;7290;50.854;4.354;2022-12-18T10:22:35;1.20;99.90
14411;DHT22;7290;50.854;4.354;2022-12-18T10:25:10;1.10;99.90
14411;DHT22;7290;50.854;4.354;2022-12-18T10:27:39;1.10;99.90
14411;DHT22;7290;50.854;4.354;2022-12-18T10:30:13;0.70;99.90
14411;DHT22;7290;50.854;4.354;2022-12-18T10:32:40;0.90;99.90
14411;DHT22;7290;50.854;4.354;2022-12-18T10:35:15;1.10;99.90
14411;DHT22;7290;50.854;4.354;2022-12-18T10:40:49;1.20;99.90
14411;DHT22;7290;50.854;4.354;2022-12-18T10:43:21;1.10;99.90
14411;DHT22;7290;50.854;4.354;2022-12-18T10:46:16;1.10;99.90
14411;DHT22;7290;50.854;4.354;2022-12-18T10:48:53;1.30;99.90
14411;DHT22;7290;50.854;4.354;2022-12-18T10:51:21;1.40;99.90
14411;DHT22;7290;50.854;4.354;2022-12-18T10:53:54;1.40;99.90
14411;DHT22;7290;50.854;4.354;2022-12-18T10:56:21;1.30;99.90
14411;DHT22;7290;50.854;4.354;2022-12-18T10:58:56;1.30;99.90
14411;DHT22;7290;50.854;4.354;2022-12-18T11:01:23;1.50;99.90
14411;DHT22;7290;50.854;4.354;2022-12-18T11:03:59;1.40;99.90
14411;DHT22;7290;50.854;4.354;2022-12-18T11:06:26;1.60;99.90
14411;DHT22;7290;50.854;4.354;2022-12-18T11:08:58;1.80;99.90
14411;DHT22;7290;50.854;4.354;2022-12-18T11:11:25;1.80;99.90
14411;DHT22;7290;50.854;4.354;2022-12-18T11:13:58;1.80;99.90
14411;DHT22;7290;50.854;4.354;2022-12-18T11:16:26;1.90;99.90
14411;DHT22;7290;50.854;4.354;2022-12-18T11:18:53;2.10;99.90
14411;DHT22;7290;50.854;4.354;2022-12-18T11:21:20;2.20;99.90
14411;DHT22;7290;50.854;4.354;2022-12-18T11:23:48;2.20;99.90
14411;DHT22;7290;50.854;4.354;2022-12-18T11:26:15;2.30;99.90
14411;DHT22;7290;50.854;4.354;2022-12-18T11:28:44;2.50;99.90
14411;DHT22;7290;50.854;4.354;2022-12-18T11:31:23;2.40;99.90
14411;DHT22;7290;50.854;4.354;2022-12-18T11:34:07;2.50;99.90
14411;DHT22;7290;50.854;4.354;2022-12-18T11:36:38;2.30;99.90
14411;DHT22;7290;50.854;4.354;2022-12-18T11:39:12;2.40;99.90
14411;DHT22;7290;50.854;4.354;2022-12-18T11:41:47;2.20;99.90
14411;DHT22;7290;50.854;4.354;2022-12-18T11:44:41;2.20;99.90
14411;DHT22;7290;50.854;4.354;2022-12-18T11:47:21;2.20;99.90
14411;DHT22;7290;50.854;4.354;2022-12-18T11:49:50;2.30;99.90
14411;DHT22;7290;50.854;4.354;2022-12-18T11:52:19;2.30;99.90
14411;DHT22;7290;50.854;4.354;2022-12-18T11:54:50;2.30;99.90
14411;DHT22;7290;50.854;4.354;2022-12-18T11:57:28;2.30;99.90
14411;DHT22;7290;50.854;4.354;2022-12-18T12:00:03;2.30;99.90
14411;DHT22;7290;50.854;4.354;2022-12-18T12:02:41;2.10;99.90
14411;DHT22;7290;50.854;4.354;2022-12-18T12:05:28;2.20;99.90
14411;DHT22;7290;50.854;4.354;2022-12-18T12:08:05;2.20;99.90
14411;DHT22;7290;50.854;4.354;2022-12-18T12:10:42;2.20;99.90
14411;DHT22;7290;50.854;4.354;2022-12-18T12:13:23;2.30;99.90
14411;DHT22;7290;50.854;4.354;2022-12-18T12:16:01;2.10;99.90
14411;DHT22;7290;50.854;4.354;2022-12-18T12:18:36;2.10;99.90
14411;DHT22;7290;50.854;4.354;2022-12-18T12:21:11;2.30;99.90
14411;DHT22;7290;50.854;4.354;2022-12-18T12:23:45;2.30;99.90
14411;DHT22;7290;50.854;4.354;2022-12-18T12:26:18;2.20;99.90
14411;DHT22;7290;50.854;4.354;2022-12-18T12:28:59;2.40;99.90
14411;DHT22;7290;50.854;4.354;2022-12-18T12:31:33;2.50;99.90
14411;DHT22;7290;50.854;4.354;2022-12-18T12:34:09;2.60;99.90
14411;DHT22;7290;50.854;4.354;2022-12-18T12:36:45;2.40;99.90
14411;DHT22;7290;50.854;4.354;2022-12-18T12:39:19;2.60;99.90
14411;DHT22;7290;50.854;4.354;2022-12-18T12:41:47;2.60;99.90
14411;DHT22;7290;50.854;4.354;2022-12-18T12:44:35;2.40;99.90
14411;DHT22;7290;50.854;4.354;2022-12-18T12:47:06;2.50;99.90
14411;DHT22;7290;50.854;4.354;2022-12-18T12:49:35;2.50;99.90
14411;DHT22;7290;50.854;4.354;2022-12-18T12:52:07;2.40;99.90
14411;DHT22;7290;50.854;4.354;2022-12-18T12:54:36;2.30;99.90
14411;DHT22;7290;50.854;4.354;2022-12-18T12:57:10;2.50;99.90
14411;DHT22;7290;50.854;4.354;2022-12-18T12:59:46;2.50;99.90
14411;DHT22;7290;50.854;4.354;2022-12-18T13:02:20;2.50;99.90
14411;DHT22;7290;50.854;4.354;2022-12-18T13:04:52;2.50;99.90
14411;DHT22;7290;50.854;4.354;2022-12-18T13:07:26;2.50;99.90
14411;DHT22;7290;50.854;4.354;2022-12-18T13:10:26;2.50;99.90
14411;DHT22;7290;50.854;4.354;2022-12-18T13:12:54;2.60;99.90
14411;DHT22;7290;50.854;4.354;2022-12-18T13:15:26;2.50;99.90
14411;DHT22;7290;50.854;4.354;2022-12-18T13:18:04;2.40;99.90
14411;DHT22;7290;50.854;4.354;2022-12-18T13:20:34;2.50;99.90
14411;DHT22;7290;50.854;4.354;2022-12-18T13:23:01;2.60;99.90
14411;DHT22;7290;50.854;4.354;2022-12-18T13:25:33;2.80;99.90
14411;DHT22;7290;50.854;4.354;2022-12-18T13:28:08;2.70;99.90
14411;DHT22;7290;50.854;4.354;2022-12-18T13:30:43;2.50;99.90
14411;DHT22;7290;50.854;4.354;2022-12-18T13:39:24;2.30;99.90
14411;DHT22;7290;50.854;4.354;2022-12-18T13:45:38;2.60;99.90
14411;DHT22;7290;50.854;4.354;2022-12-18T13:48:04;2.40;99.90
14411;DHT22;7290;50.854;4.354;2022-12-18T13:50:31;2.40;99.90
14411;DHT22;7290;50.854;4.354;2022-12-18T13:52:57;2.50;99.90
14411;DHT22;7290;50.854;4.354;2022-12-18T13:55:24;2.50;99.90
14411;DHT22;7290;50.854;4.354;2022-12-18T13:58:03;2.50;99.90
14411;DHT22;7290;50.854;4.354;2022-12-18T14:00:30;2.40;99.90
14411;DHT22;7290;50.854;4.354;2022-12-18T14:02:57;2.30;99.90
14411;DHT22;7290;50.854;4.354;2022-12-18T14:05:24;2.30;99.90
14411;DHT22;7290;50.854;4.354;2022-12-18T14:07:51;2.40;99.90
14411;DHT22;7290;50.854;4.354;2022-12-18T14:10:18;2.60;99.90
14411;DHT22;7290;50.854;4.354;2022-12-18T14:12:47;2.60;99.90
14411;DHT22;7290;50.854;4.354;2022-12-18T14:15:27;2.60;99.90
14411;DHT22;7290;50.854;4.354;2022-12-18T14:17:58;2.60;99.90
14411;DHT22;7290;50.854;4.354;2022-12-18T14:20:26;2.70;99.90
14411;DHT22;7290;50.854;4.354;2022-12-18T14:22:53;2.70;99.90
14411;DHT22;7290;50.854;4.354;2022-12-18T14:25:21;2.80;99.90
14411;DHT22;7290;50.854;4.354;2022-12-18T14:27:52;2.80;99.90
14411;DHT22;7290;50.854;4.354;2022-12-18T14:30:26;2.80;99.90
14411;DHT22;7290;50.854;4.354;2022-12-18T14:33:00;2.80;99.90
14411;DHT22;7290;50.854;4.354;2022-12-18T14:35:27;2.70;99.90
14411;DHT22;7290;50.854;4.354;2022-12-18T14:37:53;2.60;99.90
14411;DHT22;7290;50.854;4.354;2022-12-18T14:40:19;2.80;99.90
14411;DHT22;7290;50.854;4.354;2022-12-18T14:42:45;2.90;99.90
14411;DHT22;7290;50.854;4.354;2022-12-18T14:45:34;2.80;99.90
14411;DHT22;7290;50.854;4.354;2022-12-18T14:48:00;2.90;99.90
14411;DHT22;7290;50.854;4.354;2022-12-18T14:50:31;2.60;99.90
14411;DHT22;7290;50.854;4.354;2022-12-18T14:52:57;2.50;99.90
14411;DHT22;7290;50.854;4.354;2022-12-18T14:55:23;2.50;99.90
14411;DHT22;7290;50.854;4.354;2022-12-18T14:57:51;2.40;99.90
14411;DHT22;7290;50.854;4.354;2022-12-18T15:00:20;2.50;99.90
14411;DHT22;7290;50.854;4.354;2022-12-18T15:02:49;2.40;99.90
14411;DHT22;7290;50.854;4.354;2022-12-18T15:05:19;2.50;99.90
14411;DHT22;7290;50.854;4.354;2022-12-18T15:07:47;2.40;99.90
14411;DHT22;7290;50.854;4.354;2022-12-18T15:10:15;2.30;99.90
14411;DHT22;7290;50.854;4.354;2022-12-18T15:12:42;2.40;99.90
14411;DHT22;7290;50.854;4.354;2022-12-18T15:15:45;2.40;99.90
14411;DHT22;7290;50.854;4.354;2022-12-18T15:18:14;2.50;99.90
14411;DHT22;7290;50.854;4.354;2022-12-18T15:20:44;2.50;99.90
14411;DHT22;7290;50.854;4.354;2022-12-18T15:23:14;2.60;99.90
14411;DHT22;7290;50.854;4.354;2022-12-18T15:25:40;2.70;99.90
14411;DHT22;7290;50.854;4.354;2022-12-18T15:28:17;2.80;99.90
14411;DHT22;7290;50.854;4.354;2022-12-18T15:30:58;2.80;99.90
14411;DHT22;7290;50.854;4.354;2022-12-18T15:33:27;2.50;99.90
14411;DHT22;7290;50.854;4.354;2022-12-18T15:35:57;2.50;99.90
14411;DHT22;7290;50.854;4.354;2022-12-18T15:38:23;2.40;99.90
14411;DHT22;7290;50.854;4.354;2022-12-18T15:40:49;2.60;99.90
14411;DHT22;7290;50.854;4.354;2022-12-18T15:43:15;2.70;99.90
14411;DHT22;7290;50.854;4.354;2022-12-18T15:46:06;2.80;99.90
14411;DHT22;7290;50.854;4.354;2022-12-18T15:48:34;2.80;99.90
14411;DHT22;7290;50.854;4.354;2022-12-18T15:51:01;2.60;99.90
14411;DHT22;7290;50.854;4.354;2022-12-18T15:53:30;2.70;99.90
14411;DHT22;7290;50.854;4.354;2022-12-18T15:55:57;2.60;99.90
14411;DHT22;7290;50.854;4.354;2022-12-18T15:58:41;2.60;99.90
14411;DHT22;7290;50.854;4.354;2022-12-18T16:01:09;2.60;99.90
14411;DHT22;7290;50.854;4.354;2022-12-18T16:03:36;2.40;99.90
14411;DHT22;7290;50.854;4.354;2022-12-18T16:06:02;2.60;99.90
14411;DHT22;7290;50.854;4.354;2022-12-18T16:08:28;2.60;99.90
14411;DHT22;7290;50.854;4.354;2022-12-18T16:10:55;2.50;99.90
14411;DHT22;7290;50.854;4.354;2022-12-18T16:13:21;2.60;99.90
14411;DHT22;7290;50.854;4.354;2022-12-18T16:15:48;2.60;99.90
14411;DHT22;7290;50.854;4.354;2022-12-18T16:18:14;2.60;99.90
14411;DHT22;7290;50.854;4.354;2022-12-18T16:20:41;2.70;99.90
14411;DHT22;7290;50.854;4.354;2022-12-18T16:23:07;2.80;99.90